Time;durP1;ratioP1;P1;durP2;ratioP2;P2;SDS_P1;SDS_P2;PMS_P1;PMS_P2;Temp;Humidity;BMP_temperature;BMP_pressure;BME280_temperature;BME280_humidity;BME280_pressure;Samples;Min_cycle;Max_cycle;Signal;HPM_P1;HPM_P2
2024/03/13 00:02:21;;;;;;;55.45;24.38;;;5.30;99.90;;;;;;5067722;28;20378;-68
2024/03/13 00:04:47;;;;;;;57.35;22.92;;;5.30;99.90;;;;;;5050945;28;20045;-68
2024/03/13 00:07:13;;;;;;;55.80;23.10;;;5.20;99.90;;;;;;5061966;28;20039;-68
2024/03/13 00:09:46;;;;;;;62.50;23.17;;;5.30;99.90;;;;;;5062142;28;20082;-68
2024/03/13 00:12:16;;;;;;;51.90;22.20;;;5.30;99.90;;;;;;5066726;28;20061;-68
2024/03/13 00:14:49;;;;;;;64.10;24.23;;;5.30;99.90;;;;;;5070901;28;20046;-68
2024/03/13 00:17:20;;;;;;;55.65;22.73;;;5.20;99.90;;;;;;5090548;28;20036;-68
2024/03/13 00:19:50;;;;;;;56.00;22.80;;;5.20;99.90;;;;;;5067885;28;20483;-67
2024/03/13 00:22:20;;;;;;;54.33;22.23;;;5.20;99.90;;;;;;5086747;28;20036;-68
2024/03/13 00:24:50;;;;;;;54.38;22.77;;;5.20;99.90;;;;;;5093830;28;20043;-68
2024/03/13 00:27:16;;;;;;;53.20;21.13;;;5.20;99.90;;;;;;5069877;28;20423;-68
2024/03/13 00:29:44;;;;;;;64.28;23.63;;;5.10;99.90;;;;;;5047632;28;20040;-67
2024/03/13 00:32:11;;;;;;;;;;;5.10;99.90;;;;;;5056120;28;20040;-68
2024/03/13 00:34:37;;;;;;;56.28;22.02;;;5.10;99.90;;;;;;5065260;28;19919;-69
2024/03/13 00:37:03;;;;;;;56.95;23.45;;;5.10;99.90;;;;;;5058223;28;20036;-67
2024/03/13 00:39:29;;;;;;;57.22;23.10;;;5.10;99.90;;;;;;5082841;28;20036;-68
2024/03/13 00:41:55;;;;;;;65.05;25.38;;;5.20;99.90;;;;;;5085766;28;20036;-67
2024/03/13 00:44:22;;;;;;;60.42;23.00;;;5.20;99.90;;;;;;5082304;28;20032;-67
2024/03/13 00:46:48;;;;;;;58.63;24.58;;;5.30;99.90;;;;;;5079846;28;20035;-68
2024/03/13 00:49:14;;;;;;;59.53;23.65;;;5.30;99.90;;;;;;5076991;28;20028;-68
2024/03/13 00:51:40;;;;;;;64.57;24.70;;;5.30;99.90;;;;;;5046189;28;20036;-67
2024/03/13 00:54:06;;;;;;;62.25;23.85;;;5.40;99.90;;;;;;5080198;28;20039;-68
2024/03/13 00:56:32;;;;;;;61.90;23.50;;;5.50;99.90;;;;;;5080580;28;20461;-68
2024/03/13 00:58:58;;;;;;;58.20;23.80;;;5.50;99.90;;;;;;5086641;28;20036;-68
2024/03/13 01:01:24;;;;;;;63.67;23.80;;;5.60;99.90;;;;;;5087237;28;20035;-68
2024/03/13 01:03:50;;;;;;;62.55;23.75;;;5.60;99.90;;;;;;5079985;28;20416;-68
2024/03/13 01:06:18;;;;;;;54.35;23.00;;;5.60;99.90;;;;;;5079535;28;20040;-68
2024/03/13 01:08:44;;;;;;;62.67;24.45;;;5.70;99.90;;;;;;5081297;28;20135;-67
2024/03/13 01:11:10;;;;;;;63.13;24.48;;;5.70;99.90;;;;;;5071230;28;20128;-68
2024/03/13 01:13:36;;;;;;;60.00;22.48;;;5.80;99.90;;;;;;5083629;28;20093;-68
2024/03/13 01:16:02;;;;;;;61.70;23.50;;;5.80;99.90;;;;;;5092370;28;20036;-68
2024/03/13 01:18:27;;;;;;;59.15;23.60;;;5.80;99.90;;;;;;5084812;28;20036;-68
2024/03/13 01:20:53;;;;;;;57.28;22.38;;;5.90;99.90;;;;;;5081055;28;20713;-68
2024/03/13 01:23:20;;;;;;;62.25;23.38;;;5.90;99.90;;;;;;5077740;28;20524;-67
2024/03/13 01:25:47;;;;;;;59.47;22.95;;;5.90;99.90;;;;;;5065672;28;20537;-68
2024/03/13 01:28:13;;;;;;;59.38;22.70;;;5.90;99.90;;;;;;5072629;28;20054;-67
2024/03/13 01:30:39;;;;;;;60.38;23.02;;;5.90;99.90;;;;;;5077638;28;20028;-68
2024/03/13 01:33:05;;;;;;;57.47;22.95;;;5.90;99.90;;;;;;5078200;28;20119;-68
2024/03/13 01:35:31;;;;;;;56.47;22.00;;;5.80;99.90;;;;;;5089478;28;20401;-68
2024/03/13 01:37:58;;;;;;;52.50;21.98;;;5.80;99.90;;;;;;5083423;28;20032;-68
2024/03/13 01:54:50;;;;;;;57.70;21.95;;;5.80;99.90;;;;;;5082672;28;20443;-67
2024/03/13 01:55:04;;;;;;;56.83;21.23;;;5.50;99.90;;;;;;5082505;28;20042;-68
2024/03/13 01:57:45;;;;;;;53.80;20.58;;;5.50;99.90;;;;;;5087434;28;20081;-67
2024/03/13 02:02:55;;;;;;;55.92;20.30;;;5.30;99.90;;;;;;5095781;28;20522;-68
2024/03/13 02:05:21;;;;;;;46.13;19.67;;;5.30;99.90;;;;;;5077254;28;20553;-67
2024/03/13 02:07:48;;;;;;;54.67;20.80;;;5.20;99.90;;;;;;5073938;28;20127;-68
2024/03/13 02:10:14;;;;;;;50.33;20.75;;;5.10;99.90;;;;;;5065269;28;20028;-67
2024/03/13 02:13:04;;;;;;;48.00;20.50;;;5.10;99.90;;;;;;5059134;28;20043;-68
2024/03/13 02:15:29;;;;;;;49.53;20.05;;;5.00;99.90;;;;;;5049468;28;20497;-68
2024/03/13 02:17:55;;;;;;;47.95;20.08;;;4.90;99.90;;;;;;5051802;28;20112;-68
2024/03/13 02:20:24;;;;;;;53.15;19.52;;;4.90;99.90;;;;;;5074519;28;20068;-68
2024/03/13 02:23:02;;;;;;;56.17;21.73;;;4.90;99.90;;;;;;5075085;28;20036;-68
2024/03/13 02:25:32;;;;;;;52.53;19.77;;;4.90;99.90;;;;;;5081228;28;20448;-68
2024/03/13 02:27:59;;;;;;;55.28;20.23;;;4.80;99.90;;;;;;5076873;28;20091;-68
2024/03/13 02:30:24;;;;;;;51.43;20.03;;;4.70;99.90;;;;;;5080567;28;20635;-68
2024/03/13 02:32:50;;;;;;;53.63;21.08;;;4.70;99.90;;;;;;5086556;28;20132;-68
2024/03/13 02:35:16;;;;;;;48.38;20.10;;;4.70;99.90;;;;;;5079696;28;20028;-67
2024/03/13 02:37:42;;;;;;;53.08;21.02;;;4.60;99.90;;;;;;5077543;28;20056;-68
2024/03/13 02:40:16;;;;;;;56.05;19.85;;;4.60;99.90;;;;;;5074469;28;20570;-67
2024/03/13 02:42:46;;;;;;;55.05;21.20;;;4.60;99.90;;;;;;5078554;28;20024;-68
2024/03/13 02:45:13;;;;;;;61.42;22.13;;;4.60;99.90;;;;;;5076062;28;20102;-68
2024/03/13 02:47:41;;;;;;;53.08;20.10;;;4.60;99.90;;;;;;5079982;28;20090;-68
2024/03/13 02:50:11;;;;;;;51.78;21.02;;;4.50;99.90;;;;;;5056252;28;20036;-68
2024/03/13 02:52:40;;;;;;;56.97;20.70;;;4.50;99.90;;;;;;5079943;28;20044;-68
2024/03/13 02:55:07;;;;;;;47.95;19.73;;;4.50;99.90;;;;;;5078987;28;20404;-68
2024/03/13 02:57:33;;;;;;;52.92;20.67;;;4.50;99.90;;;;;;5088616;28;20044;-68
2024/03/13 02:59:58;;;;;;;49.08;19.48;;;4.40;99.90;;;;;;5079386;28;20051;-67
2024/03/13 03:02:24;;;;;;;49.38;19.50;;;4.40;99.90;;;;;;5058980;28;20072;-68
2024/03/13 03:04:50;;;;;;;50.08;20.02;;;4.40;99.90;;;;;;5078849;28;20049;-67
2024/03/13 03:07:16;;;;;;;60.05;20.80;;;4.40;99.90;;;;;;5066870;28;20041;-67
2024/03/13 03:09:42;;;;;;;55.45;20.73;;;4.40;99.90;;;;;;5063900;28;20102;-68
2024/03/13 03:12:12;;;;;;;53.15;19.10;;;4.40;99.90;;;;;;5065454;28;20040;-68
2024/03/13 03:14:41;;;;;;;56.22;19.48;;;4.30;99.90;;;;;;5065919;28;20029;-68
2024/03/13 03:17:06;;;;;;;55.53;19.73;;;4.30;99.90;;;;;;5071700;28;20059;-68
2024/03/13 03:19:34;;;;;;;53.60;18.98;;;4.30;99.90;;;;;;5083143;28;20063;-68
2024/03/13 03:22:00;;;;;;;52.03;19.30;;;4.30;99.90;;;;;;5085528;28;20025;-68
2024/03/13 03:24:31;;;;;;;53.42;19.27;;;4.20;99.90;;;;;;5057208;28;20021;-68
2024/03/13 03:26:57;;;;;;;46.60;18.65;;;4.20;99.90;;;;;;5060902;28;20025;-67
2024/03/13 03:29:23;;;;;;;49.33;18.95;;;4.10;99.90;;;;;;5064454;28;20493;-68
2024/03/13 03:31:49;;;;;;;49.03;18.15;;;4.10;99.90;;;;;;5061906;28;20036;-68
2024/03/13 03:34:15;;;;;;;44.92;18.70;;;4.10;99.90;;;;;;5064020;28;20037;-68
2024/03/13 03:36:40;;;;;;;47.42;17.95;;;4.10;99.90;;;;;;5069025;28;20608;-68
2024/03/13 03:39:10;;;;;;;54.55;19.35;;;4.00;99.90;;;;;;5084700;28;20020;-68
2024/03/13 03:41:39;;;;;;;57.20;20.40;;;4.00;99.90;;;;;;5060939;28;20037;-67
2024/03/13 03:44:05;;;;;;;56.25;20.02;;;4.00;99.90;;;;;;5059436;28;20029;-68
2024/03/13 03:46:31;;;;;;;55.47;20.42;;;4.00;99.90;;;;;;5062816;28;20028;-67
2024/03/13 03:48:58;;;;;;;46.35;18.15;;;4.00;99.90;;;;;;5055454;28;20040;-67
2024/03/13 03:51:24;;;;;;;52.00;20.15;;;4.00;99.90;;;;;;5050480;28;20037;-68
2024/03/13 03:53:50;;;;;;;46.85;19.15;;;3.90;99.90;;;;;;5076520;28;20574;-68
2024/03/13 03:56:16;;;;;;;51.85;19.40;;;4.00;99.90;;;;;;5084619;28;20036;-68
2024/03/13 03:58:42;;;;;;;54.03;21.17;;;3.90;99.90;;;;;;5085942;28;20024;-68
2024/03/13 04:01:08;;;;;;;54.28;20.17;;;4.00;99.90;;;;;;5075107;28;20402;-68
2024/03/13 04:03:37;;;;;;;48.25;19.30;;;3.90;99.90;;;;;;5064700;28;20028;-68
2024/03/13 04:06:03;;;;;;;52.30;19.52;;;3.90;99.90;;;;;;5080446;28;20047;-68
2024/03/13 04:08:29;;;;;;;52.60;20.00;;;3.90;99.90;;;;;;5072828;28;20578;-67
2024/03/13 04:10:55;;;;;;;56.88;19.73;;;4.00;99.90;;;;;;5070690;28;20040;-67
2024/03/13 04:13:22;;;;;;;52.70;19.38;;;4.00;99.90;;;;;;5081279;28;20040;-68
2024/03/13 04:15:50;;;;;;;57.67;20.42;;;4.00;99.90;;;;;;5070699;28;20132;-67
2024/03/13 04:18:17;;;;;;;58.58;21.25;;;3.90;99.90;;;;;;5056646;28;20025;-68
2024/03/13 04:20:45;;;;;;;53.17;20.30;;;3.90;99.90;;;;;;5080273;28;20031;-67
2024/03/13 04:23:13;;;;;;;54.35;18.95;;;4.00;99.90;;;;;;5075880;28;20089;-68
2024/03/13 04:25:40;;;;;;;54.58;21.05;;;4.00;99.90;;;;;;5072895;28;20567;-68
2024/03/13 04:28:07;;;;;;;61.05;20.85;;;4.10;99.90;;;;;;5082734;28;20028;-68
2024/03/13 04:30:33;;;;;;;60.10;20.48;;;4.10;99.90;;;;;;5066280;28;20033;-68
2024/03/13 04:32:59;;;;;;;64.38;22.10;;;4.20;99.90;;;;;;5079662;28;20035;-68
2024/03/13 04:35:25;;;;;;;56.80;21.15;;;4.30;99.90;;;;;;5070643;28;20393;-67
2024/03/13 04:37:51;;;;;;;63.17;22.17;;;4.40;99.90;;;;;;5079973;28;20119;-67
2024/03/13 04:40:22;;;;;;;65.63;23.27;;;4.50;99.90;;;;;;5085437;28;20579;-68
2024/03/13 04:42:48;;;;;;;62.53;21.20;;;4.60;99.90;;;;;;5079762;28;20065;-68
2024/03/13 04:45:13;;;;;;;60.75;22.15;;;4.60;99.90;;;;;;5078400;28;20033;-67
2024/03/13 04:47:39;;;;;;;56.38;21.10;;;4.70;99.90;;;;;;5090507;28;20123;-67
2024/03/13 04:50:08;;;;;;;61.83;22.55;;;4.80;99.90;;;;;;5063349;28;20064;-68
2024/03/13 04:52:36;;;;;;;61.42;22.60;;;4.80;99.90;;;;;;5055875;28;20036;-68
2024/03/13 04:55:02;;;;;;;66.97;22.85;;;4.90;99.90;;;;;;5058817;28;20049;-67
2024/03/13 04:57:28;;;;;;;61.78;22.02;;;4.90;99.90;;;;;;5054899;28;20555;-68
2024/03/13 04:59:54;;;;;;;57.97;22.10;;;5.00;99.90;;;;;;5055427;28;20110;-68
2024/03/13 05:02:20;;;;;;;69.55;22.48;;;5.00;99.90;;;;;;5064610;28;20456;-68
2024/03/13 05:04:45;;;;;;;65.80;23.35;;;5.10;99.90;;;;;;5070733;28;20132;-67
2024/03/13 05:07:12;;;;;;;63.55;24.25;;;5.10;99.90;;;;;;5077363;28;20555;-68
2024/03/13 05:09:40;;;;;;;65.55;22.80;;;5.20;99.90;;;;;;5072838;28;20145;-67
2024/03/13 05:12:06;;;;;;;59.55;23.17;;;5.20;99.90;;;;;;5061953;28;20041;-68
2024/03/13 05:14:32;;;;;;;59.80;22.33;;;5.30;99.90;;;;;;5057036;28;20094;-68
2024/03/13 05:16:58;;;;;;;66.90;22.60;;;5.30;99.90;;;;;;5057945;28;20060;-67
2024/03/13 05:19:24;;;;;;;64.18;22.83;;;5.40;99.90;;;;;;5088134;28;20031;-67
2024/03/13 05:21:51;;;;;;;65.30;24.10;;;5.50;99.90;;;;;;5080509;28;20041;-68
2024/03/13 05:24:17;;;;;;;62.38;22.55;;;5.50;99.90;;;;;;5084464;28;20020;-68
2024/03/13 05:26:42;;;;;;;65.78;22.27;;;5.50;99.90;;;;;;5077329;28;20036;-68
2024/03/13 05:29:09;;;;;;;57.55;21.67;;;5.50;99.90;;;;;;5080296;28;20032;-68
2024/03/13 05:31:35;;;;;;;55.33;20.83;;;5.60;99.90;;;;;;5072651;28;20033;-68
2024/03/13 05:34:01;;;;;;;59.15;22.52;;;5.60;99.90;;;;;;5053864;28;20123;-68
2024/03/13 05:36:27;;;;;;;51.15;19.70;;;5.60;99.90;;;;;;5035515;28;20036;-68
2024/03/13 05:38:55;;;;;;;53.63;21.73;;;5.70;99.90;;;;;;5046576;28;20095;-67
2024/03/13 05:41:21;;;;;;;52.08;21.48;;;5.60;99.90;;;;;;5072854;28;20028;-68
2024/03/13 05:43:47;;;;;;;63.50;22.42;;;5.60;99.90;;;;;;5078942;28;20039;-68
2024/03/13 05:46:12;;;;;;;59.47;23.42;;;5.60;99.90;;;;;;5053059;28;20039;-68
2024/03/13 05:48:38;;;;;;;53.30;21.60;;;5.60;99.90;;;;;;5076916;28;20035;-68
2024/03/13 05:51:06;;;;;;;55.50;21.00;;;5.60;99.90;;;;;;5080076;28;20448;-67
2024/03/13 05:53:32;;;;;;;56.83;21.95;;;5.70;99.90;;;;;;5088568;28;20601;-68
2024/03/13 05:56:00;;;;;;;58.83;21.05;;;5.60;99.90;;;;;;5077264;28;20050;-68
2024/03/13 05:58:26;;;;;;;56.45;19.77;;;5.80;99.90;;;;;;5083129;28;20082;-68
2024/03/13 06:00:53;;;;;;;50.13;18.85;;;5.70;99.90;;;;;;5084254;28;20039;-67
2024/03/13 06:03:19;;;;;;;58.20;20.20;;;5.70;99.90;;;;;;5088153;28;20101;-68
2024/03/13 06:05:47;;;;;;;49.92;20.45;;;5.80;99.90;;;;;;5079416;28;20040;-68
2024/03/13 06:08:13;;;;;;;54.83;19.63;;;5.80;99.90;;;;;;5072638;28;20039;-68
2024/03/13 06:10:39;;;;;;;54.15;19.73;;;5.80;99.90;;;;;;5082053;28;20511;-68
2024/03/13 06:13:04;;;;;;;56.15;21.55;;;5.80;99.90;;;;;;5081675;28;20427;-66
2024/03/13 06:15:30;;;;;;;55.08;20.92;;;5.90;99.90;;;;;;5081780;28;20032;-67
2024/03/13 06:17:56;;;;;;;50.53;19.05;;;5.90;99.90;;;;;;5081217;28;20032;-68
2024/03/13 06:20:22;;;;;;;54.80;20.48;;;5.90;99.90;;;;;;5075144;28;20097;-68
2024/03/13 06:22:48;;;;;;;50.80;20.70;;;5.90;99.90;;;;;;5076808;28;20025;-69
2024/03/13 06:25:14;;;;;;;51.50;18.63;;;5.90;99.90;;;;;;5076834;28;20031;-68
2024/03/13 06:27:40;;;;;;;48.47;19.90;;;6.00;99.90;;;;;;5069575;28;20032;-68
2024/03/13 06:30:08;;;;;;;46.85;19.70;;;6.00;99.90;;;;;;5079230;28;20023;-68
2024/03/13 06:32:34;;;;;;;51.17;19.05;;;6.10;99.90;;;;;;5069899;28;20036;-68
2024/03/13 06:35:04;;;;;;;46.38;19.23;;;6.10;99.90;;;;;;5076974;28;20032;-68
2024/03/13 06:37:33;;;;;;;60.05;20.77;;;6.10;99.90;;;;;;5082377;28;20157;-68
2024/03/13 06:39:59;;;;;;;52.55;19.55;;;6.20;99.90;;;;;;5081459;28;20057;-68
2024/03/13 06:42:25;;;;;;;47.40;18.33;;;6.20;99.90;;;;;;5075874;28;20032;-69
2024/03/13 06:44:51;;;;;;;52.95;20.05;;;6.30;99.90;;;;;;5078763;28;20040;-69
2024/03/13 06:47:17;;;;;;;49.10;18.88;;;6.30;99.90;;;;;;5078603;28;20089;-68
2024/03/13 06:49:44;;;;;;;47.38;19.10;;;6.40;99.90;;;;;;5080399;28;20047;-68
2024/03/13 06:52:12;;;;;;;46.47;17.42;;;6.40;99.90;;;;;;5077265;28;20032;-69
2024/03/13 06:54:42;;;;;;;46.33;17.70;;;6.50;99.90;;;;;;5082578;28;20035;-68
2024/03/13 06:57:12;;;;;;;41.80;18.25;;;6.50;99.90;;;;;;5087091;28;20012;-68
2024/03/13 06:59:39;;;;;;;47.55;18.38;;;6.50;99.90;;;;;;5093363;28;20034;-69
2024/03/13 07:02:06;;;;;;;50.53;19.05;;;6.60;99.90;;;;;;5076422;28;20051;-69
2024/03/13 07:04:31;;;;;;;45.88;17.73;;;6.70;99.90;;;;;;5089181;28;20035;-69
2024/03/13 07:07:00;;;;;;;47.53;16.45;;;6.70;99.90;;;;;;5070995;28;20040;-69
2024/03/13 07:09:29;;;;;;;39.58;16.67;;;6.80;99.90;;;;;;5091011;28;20139;-68
2024/03/13 07:11:55;;;;;;;43.55;16.75;;;6.90;99.90;;;;;;5081533;28;20028;-69
2024/03/13 07:14:21;;;;;;;36.40;16.17;;;6.90;99.90;;;;;;5078195;28;20050;-69
2024/03/13 07:16:47;;;;;;;40.72;16.55;;;7.00;99.90;;;;;;5080974;28;20103;-68
2024/03/13 07:19:13;;;;;;;40.92;16.05;;;7.00;99.90;;;;;;5077355;28;20052;-68
2024/03/13 07:21:40;;;;;;;33.78;14.90;;;7.10;99.90;;;;;;5058666;28;20024;-68
2024/03/13 07:24:06;;;;;;;34.05;14.57;;;7.20;99.90;;;;;;5088835;28;20036;-71
2024/03/13 07:26:32;;;;;;;35.75;15.43;;;7.20;99.90;;;;;;5063509;28;20033;-71
2024/03/13 07:29:00;;;;;;;34.03;14.10;;;7.30;99.90;;;;;;5085505;28;20389;-69
2024/03/13 07:31:26;;;;;;;35.15;15.18;;;7.40;99.90;;;;;;5065184;28;20143;-69
2024/03/13 07:33:53;;;;;;;35.38;14.38;;;7.40;99.90;;;;;;5078433;28;20123;-69
2024/03/13 07:36:21;;;;;;;36.33;14.02;;;7.50;99.90;;;;;;5082097;28;20027;-69
2024/03/13 07:38:47;;;;;;;32.47;13.70;;;7.60;99.90;;;;;;5084446;28;20446;-69
2024/03/13 07:41:13;;;;;;;33.13;13.52;;;7.60;99.90;;;;;;5077722;28;20036;-69
2024/03/13 07:43:39;;;;;;;32.92;13.90;;;7.70;99.90;;;;;;5061983;28;20040;-69
2024/03/13 07:46:05;;;;;;;34.72;13.52;;;7.80;99.90;;;;;;5063086;28;20416;-67
2024/03/13 07:48:30;;;;;;;30.58;13.48;;;7.90;99.90;;;;;;5068540;28;20034;-67
2024/03/13 07:50:56;;;;;;;33.42;13.93;;;7.90;99.90;;;;;;5079971;28;20047;-67
2024/03/13 07:53:22;;;;;;;29.48;12.82;;;8.00;99.90;;;;;;5075457;28;20123;-67
2024/03/13 07:55:48;;;;;;;31.63;12.93;;;8.10;99.90;;;;;;5073868;28;20057;-67
2024/03/13 07:58:13;;;;;;;29.95;12.88;;;8.10;99.90;;;;;;5081538;28;20181;-67
2024/03/13 08:00:39;;;;;;;29.92;12.43;;;8.20;99.90;;;;;;5081077;28;20107;-68
2024/03/13 08:03:05;;;;;;;24.88;11.13;;;8.30;99.90;;;;;;5077094;28;20515;-68
2024/03/13 08:05:31;;;;;;;25.60;11.18;;;8.40;99.90;;;;;;5068068;28;20051;-67
2024/03/13 08:07:57;;;;;;;29.42;11.38;;;8.40;99.90;;;;;;5079946;28;20089;-68
2024/03/13 08:10:25;;;;;;;29.13;12.10;;;8.50;99.90;;;;;;5064473;28;20069;-68
2024/03/13 08:13:00;;;;;;;24.48;11.45;;;8.60;99.90;;;;;;5043142;28;20044;-68
2024/03/13 08:15:28;;;;;;;27.45;10.85;;;8.60;99.90;;;;;;5056191;28;20060;-68
2024/03/13 08:17:55;;;;;;;30.00;11.85;;;8.70;99.90;;;;;;5085837;28;20113;-68
2024/03/13 08:20:20;;;;;;;30.48;10.90;;;8.80;99.90;;;;;;5078723;28;20036;-68
2024/03/13 08:22:46;;;;;;;24.70;10.85;;;8.90;99.90;;;;;;5078481;28;20083;-68
2024/03/13 08:25:20;;;;;;;23.90;11.15;;;8.90;99.90;;;;;;5061477;28;20062;-68
2024/03/13 08:27:46;;;;;;;24.10;10.68;;;9.10;99.90;;;;;;5038715;28;20114;-67
2024/03/13 08:30:17;;;;;;;25.13;10.52;;;9.10;99.90;;;;;;5050771;28;20027;-67
2024/03/13 08:32:43;;;;;;;20.75;9.68;;;9.20;99.90;;;;;;5071466;28;20564;-68
2024/03/13 08:35:09;;;;;;;21.15;9.77;;;9.30;99.90;;;;;;5075873;28;20032;-68
2024/03/13 08:37:35;;;;;;;23.05;10.18;;;9.40;99.90;;;;;;5081775;28;20097;-68
2024/03/13 08:40:02;;;;;;;23.60;10.48;;;9.40;99.90;;;;;;5082506;28;20064;-68
2024/03/13 08:42:27;;;;;;;20.42;9.90;;;9.50;99.90;;;;;;5073289;28;20032;-68
2024/03/13 08:45:06;;;;;;;18.95;8.95;;;9.60;99.90;;;;;;5074171;28;20039;-70
2024/03/13 08:47:32;;;;;;;20.90;10.20;;;9.70;99.90;;;;;;5072452;28;20032;-68
2024/03/13 08:49:57;;;;;;;23.25;9.60;;;9.80;99.90;;;;;;5074579;28;20042;-69
2024/03/13 08:52:23;;;;;;;20.23;9.27;;;9.90;99.90;;;;;;5059726;28;20400;-69
2024/03/13 08:54:52;;;;;;;19.75;9.13;;;10.00;99.90;;;;;;5066021;28;20038;-69
2024/03/13 08:57:17;;;;;;;20.13;9.73;;;10.10;99.90;;;;;;5080963;28;20473;-69
2024/03/13 08:59:43;;;;;;;21.13;9.63;;;10.10;99.90;;;;;;5074622;28;20036;-69
2024/03/13 09:02:09;;;;;;;18.20;8.40;;;10.20;99.90;;;;;;5062074;28;20058;-69
2024/03/13 09:04:35;;;;;;;18.50;8.52;;;10.20;99.90;;;;;;5077916;28;20029;-69
2024/03/13 09:07:03;;;;;;;19.25;9.25;;;10.30;99.90;;;;;;5069971;28;20037;-69
2024/03/13 09:09:29;;;;;;;17.80;8.70;;;10.30;99.90;;;;;;5054887;28;20052;-69
2024/03/13 09:11:55;;;;;;;18.38;9.02;;;10.40;99.90;;;;;;5079489;28;20627;-69
2024/03/13 09:14:23;;;;;;;15.55;7.95;;;10.50;99.90;;;;;;5075359;28;20534;-68
2024/03/13 09:16:52;;;;;;;17.73;8.13;;;10.60;99.90;;;;;;5055016;28;20039;-69
2024/03/13 09:19:18;;;;;;;17.52;8.75;;;10.70;99.90;;;;;;5064043;28;20041;-69
2024/03/13 09:21:47;;;;;;;18.60;9.43;;;10.70;99.90;;;;;;5022457;28;20418;-69
2024/03/13 09:24:13;;;;;;;15.75;8.48;;;10.90;99.90;;;;;;5056108;28;20476;-69
2024/03/13 09:26:40;;;;;;;19.38;8.80;;;11.00;99.90;;;;;;5071751;28;21570;-69
2024/03/13 09:29:06;;;;;;;17.35;8.35;;;11.00;99.90;;;;;;5079606;28;20042;-69
2024/03/13 09:31:33;;;;;;;13.65;7.82;;;11.00;99.90;;;;;;5064290;28;20028;-68
2024/03/13 09:33:58;;;;;;;16.85;8.48;;;10.90;99.90;;;;;;5065983;28;20043;-69
2024/03/13 09:36:24;;;;;;;16.38;7.95;;;10.90;99.90;;;;;;5083105;28;20040;-69
2024/03/13 09:38:50;;;;;;;14.73;7.90;;;11.00;99.90;;;;;;5079885;28;23468;-69
2024/03/13 09:41:16;;;;;;;18.35;8.43;;;11.00;99.90;;;;;;5073422;28;20037;-69
2024/03/13 09:43:43;;;;;;;14.40;7.88;;;11.00;99.90;;;;;;5074039;28;20033;-69
2024/03/13 09:46:13;;;;;;;15.98;8.02;;;11.00;99.90;;;;;;5064898;28;20028;-69
2024/03/13 09:48:42;;;;;;;14.00;7.18;;;11.00;99.90;;;;;;5074766;28;20088;-69
2024/03/13 09:51:08;;;;;;;16.75;7.47;;;11.10;99.90;;;;;;5075019;28;20067;-69
2024/03/13 09:53:40;;;;;;;15.35;7.72;;;11.20;99.90;;;;;;5061169;28;20041;-70
2024/03/13 09:56:13;;;;;;;15.07;7.50;;;11.20;99.90;;;;;;5055542;28;20082;-69
2024/03/13 09:58:44;;;;;;;13.43;7.25;;;11.20;99.90;;;;;;5087101;28;20023;-69
2024/03/13 10:01:17;;;;;;;15.60;7.75;;;11.20;99.90;;;;;;5078239;28;20020;-69
2024/03/13 10:03:47;;;;;;;14.38;7.35;;;11.20;99.90;;;;;;5061013;28;20085;-69
2024/03/13 10:06:14;;;;;;;17.08;7.90;;;11.20;99.90;;;;;;5062253;28;20030;-69
2024/03/13 10:08:44;;;;;;;13.52;7.78;;;11.30;99.90;;;;;;5077843;28;20028;-69
2024/03/13 10:11:14;;;;;;;15.85;7.88;;;11.20;99.90;;;;;;5081396;28;20047;-69
2024/03/13 10:13:43;;;;;;;18.35;7.95;;;11.20;99.90;;;;;;5075640;28;20043;-69
2024/03/13 10:16:10;;;;;;;16.20;8.25;;;11.20;99.90;;;;;;5072870;28;20130;-69
2024/03/13 10:18:47;;;;;;;14.45;7.63;;;11.20;99.90;;;;;;5069898;28;20032;-69
2024/03/13 10:21:23;;;;;;;12.98;6.85;;;11.20;99.90;;;;;;5064450;28;20032;-69
2024/03/13 10:23:51;;;;;;;14.23;7.38;;;11.20;99.90;;;;;;5074802;28;20024;-69
2024/03/13 10:26:20;;;;;;;14.63;7.80;;;11.20;99.90;;;;;;5076949;28;20036;-69
2024/03/13 10:28:47;;;;;;;16.00;7.50;;;11.20;99.90;;;;;;5078551;28;20027;-69
2024/03/13 10:31:15;;;;;;;14.27;7.77;;;11.20;99.90;;;;;;5075276;28;20036;-69
2024/03/13 10:33:41;;;;;;;13.80;7.32;;;11.20;99.90;;;;;;5071992;28;20878;-69
2024/03/13 10:36:07;;;;;;;16.20;7.78;;;11.20;99.90;;;;;;5077613;28;20070;-69
2024/03/13 10:38:36;;;;;;;14.80;7.63;;;11.30;99.90;;;;;;5072386;28;20052;-69
2024/03/13 10:41:02;;;;;;;15.13;8.32;;;11.30;99.90;;;;;;5079758;28;20032;-69
2024/03/13 10:43:31;;;;;;;14.93;7.13;;;11.30;99.90;;;;;;5064306;28;20043;-69
2024/03/13 10:45:57;;;;;;;18.23;8.10;;;11.30;99.90;;;;;;5079843;28;20032;-69
2024/03/13 10:48:24;;;;;;;19.48;7.93;;;11.40;99.90;;;;;;5075624;28;20028;-69
2024/03/13 10:50:50;;;;;;;15.63;8.05;;;11.40;99.90;;;;;;5074611;28;20051;-69
2024/03/13 10:53:16;;;;;;;17.60;8.40;;;11.30;99.90;;;;;;5078086;28;20524;-69
2024/03/13 10:55:42;;;;;;;15.48;8.18;;;11.40;99.90;;;;;;5076116;28;20574;-70
2024/03/13 10:58:36;;;;;;;13.95;7.55;;;11.40;99.90;;;;;;5075453;28;20029;-69
2024/03/13 11:01:01;;;;;;;15.23;7.82;;;11.50;99.90;;;;;;5071161;28;20750;-69
2024/03/13 11:03:27;;;;;;;16.77;8.68;;;11.60;99.90;;;;;;5081066;28;20119;-69
2024/03/13 11:05:54;;;;;;;14.73;7.82;;;11.70;99.90;;;;;;5078381;28;20519;-69
2024/03/13 11:08:21;;;;;;;13.02;7.70;;;11.60;99.90;;;;;;5061904;28;20671;-69
2024/03/13 11:10:48;;;;;;;16.33;7.67;;;11.60;99.90;;;;;;5076762;28;20511;-69
2024/03/13 11:13:17;;;;;;;17.40;7.93;;;11.50;99.90;;;;;;5070595;28;20069;-69
2024/03/13 11:15:45;;;;;;;16.08;7.53;;;11.60;99.90;;;;;;5058771;28;20028;-69
2024/03/13 11:18:12;;;;;;;16.08;7.72;;;11.60;99.90;;;;;;5074608;28;20042;-69
2024/03/13 11:20:47;;;;;;;14.50;8.07;;;11.70;99.90;;;;;;5073917;28;20067;-69
2024/03/13 11:23:20;;;;;;;15.00;7.50;;;11.50;99.90;;;;;;5060399;28;20040;-69
2024/03/13 11:25:48;;;;;;;15.88;7.97;;;11.60;99.90;;;;;;5053537;28;20032;-69
2024/03/13 11:28:36;;;;;;;15.07;7.65;;;11.60;99.90;;;;;;5050565;28;20461;-69
2024/03/13 11:31:05;;;;;;;17.77;8.23;;;11.70;99.90;;;;;;5059393;28;20033;-68
2024/03/13 11:33:31;;;;;;;17.10;7.90;;;11.70;99.90;;;;;;5056115;28;20054;-68
2024/03/13 11:35:58;;;;;;;15.35;8.30;;;11.70;99.90;;;;;;5063447;28;20017;-68
2024/03/13 11:38:24;;;;;;;13.55;7.43;;;11.80;99.90;;;;;;5063061;28;20033;-69
2024/03/13 11:40:51;;;;;;;14.02;7.60;;;11.80;99.90;;;;;;5057148;28;20043;-68
2024/03/13 11:43:22;;;;;;;17.00;7.38;;;11.80;99.90;;;;;;5055454;28;20040;-68
2024/03/13 11:45:48;;;;;;;15.20;7.47;;;11.90;99.90;;;;;;5057181;28;20062;-69
2024/03/13 11:48:15;;;;;;;15.90;7.75;;;11.90;99.90;;;;;;5073861;28;20021;-68
2024/03/13 11:51:10;;;;;;;15.53;7.87;;;11.90;99.90;;;;;;5080348;28;20032;-68
2024/03/13 11:53:40;;;;;;;15.38;7.32;;;12.00;99.90;;;;;;5066545;28;20282;-68
2024/03/13 11:56:09;;;;;;;14.05;7.35;;;12.10;99.90;;;;;;5068801;28;20063;-68
2024/03/13 11:58:36;;;;;;;14.27;7.28;;;12.20;99.90;;;;;;5069156;28;20378;-68
2024/03/13 12:01:02;;;;;;;13.02;7.20;;;12.10;99.90;;;;;;5061696;28;20409;-68
2024/03/13 12:03:48;;;;;;;13.23;7.55;;;12.20;99.90;;;;;;5066569;28;20025;-68
2024/03/13 12:06:20;;;;;;;12.85;6.95;;;12.30;99.90;;;;;;5042799;28;20177;-68
2024/03/13 12:08:47;;;;;;;11.95;7.05;;;12.30;99.90;;;;;;5059918;28;20039;-68
2024/03/13 12:11:18;;;;;;;16.25;7.68;;;12.30;99.90;;;;;;5066636;28;20058;-68
2024/03/13 12:13:44;;;;;;;10.27;6.47;;;12.40;99.90;;;;;;5084973;28;20044;-68
2024/03/13 12:16:13;;;;;;;11.68;6.57;;;12.60;99.90;;;;;;5077803;28;20128;-68
2024/03/13 12:18:45;;;;;;;12.52;7.05;;;12.60;99.90;;;;;;5078668;28;20122;-69
2024/03/13 12:21:11;;;;;;;12.15;6.47;;;12.70;99.90;;;;;;5058219;28;20035;-68
2024/03/13 12:23:37;;;;;;;11.65;6.72;;;12.70;99.90;;;;;;5065808;28;20507;-68
2024/03/13 12:26:04;;;;;;;12.60;6.40;;;12.70;99.90;;;;;;5057813;28;20033;-68
2024/03/13 12:28:30;;;;;;;14.20;6.38;;;12.80;99.90;;;;;;5065619;28;20532;-68
2024/03/13 12:30:56;;;;;;;12.93;6.13;;;12.80;99.90;;;;;;5063003;28;20037;-68
2024/03/13 12:33:21;;;;;;;11.85;6.60;;;12.80;99.90;;;;;;5062388;28;20082;-68
2024/03/13 12:35:59;;;;;;;14.27;7.45;;;12.80;99.90;;;;;;5069952;28;20042;-68
2024/03/13 12:38:39;;;;;;;10.50;6.40;;;12.80;99.90;;;;;;5078536;28;20044;-68
2024/03/13 12:41:07;;;;;;;12.82;6.45;;;12.90;99.90;;;;;;5070495;28;20085;-68
2024/03/13 12:43:34;;;;;;;11.27;6.45;;;12.80;99.90;;;;;;5059922;28;20036;-68
2024/03/13 12:46:02;;;;;;;12.05;6.65;;;12.80;99.90;;;;;;5056424;28;20033;-68
2024/03/13 12:48:33;;;;;;;;;;;12.80;99.90;;;;;;5078182;28;20107;-68
2024/03/13 12:51:00;;;;;;;12.05;6.78;;;12.80;99.90;;;;;;5080049;28;19908;-68
2024/03/13 12:53:29;;;;;;;12.93;7.03;;;12.90;99.90;;;;;;5082544;28;20039;-68
2024/03/13 12:55:54;;;;;;;12.23;6.57;;;12.90;99.90;;;;;;5082240;28;20032;-68